Time;durP1;ratioP1;P1;durP2;ratioP2;P2;SDS_P1;SDS_P2;PMS_P1;PMS_P2;Temp;Humidity;BMP_temperature;BMP_pressure;BME280_temperature;BME280_humidity;BME280_pressure;Samples;Min_cycle;Max_cycle;Signal;HPM_P1;HPM_P2
2024/04/20 00:00:24;;;;;;;6.27;1.60;;;5.50;99.90;;;;;;5382359;26;19996;-52
2024/04/20 00:02:53;;;;;;;6.60;1.63;;;5.50;99.90;;;;;;5381588;26;20000;-54
2024/04/20 00:05:20;;;;;;;8.13;2.72;;;5.40;99.90;;;;;;5383132;26;20000;-54
2024/04/20 00:07:47;;;;;;;7.40;2.30;;;5.40;99.90;;;;;;5383004;26;20070;-54
2024/04/20 00:10:14;;;;;;;5.47;1.63;;;5.40;99.90;;;;;;5382197;26;20000;-54
2024/04/20 00:12:40;;;;;;;4.83;1.23;;;5.30;99.90;;;;;;5383307;26;20046;-54
2024/04/20 00:15:07;;;;;;;10.37;1.87;;;5.30;99.90;;;;;;5383251;26;20000;-54
2024/04/20 00:17:33;;;;;;;4.33;1.60;;;5.30;99.90;;;;;;5382933;26;20069;-51
2024/04/20 00:19:59;;;;;;;4.23;1.40;;;5.30;99.90;;;;;;5382043;26;20075;-53
2024/04/20 00:22:25;;;;;;;7.63;1.57;;;5.30;99.90;;;;;;5382852;26;20000;-53
2024/04/20 00:24:52;;;;;;;6.00;1.53;;;5.20;99.90;;;;;;5382862;26;20024;-53
2024/04/20 00:27:18;;;;;;;4.77;1.40;;;5.20;99.90;;;;;;5382952;26;20051;-53
2024/04/20 00:29:44;;;;;;;6.43;1.40;;;5.20;99.90;;;;;;5382139;26;19996;-53
2024/04/20 00:32:10;;;;;;;4.47;1.63;;;5.20;99.90;;;;;;5382936;26;20408;-52
2024/04/20 00:34:37;;;;;;;7.73;1.60;;;5.20;99.90;;;;;;5383037;26;20069;-52
2024/04/20 00:37:04;;;;;;;23.43;3.87;;;5.20;99.90;;;;;;5382647;26;20016;-53
2024/04/20 00:39:30;;;;;;;11.37;1.70;;;5.10;99.90;;;;;;5382068;26;20066;-53
2024/04/20 00:41:56;;;;;;;6.63;1.73;;;5.10;99.90;;;;;;5382446;26;20073;-53
2024/04/20 00:44:23;;;;;;;6.00;1.77;;;5.10;99.90;;;;;;5382734;26;20000;-53
2024/04/20 00:46:54;;;;;;;9.30;2.40;;;5.10;99.90;;;;;;5382465;26;19996;-49
2024/04/20 00:49:22;;;;;;;6.57;2.00;;;5.10;99.90;;;;;;5381884;26;20004;-50
2024/04/20 00:51:50;;;;;;;7.83;1.97;;;5.10;99.90;;;;;;5382248;26;20459;-50
2024/04/20 00:54:16;;;;;;;7.70;2.07;;;5.00;99.90;;;;;;5382375;26;20067;-50
2024/04/20 00:56:43;;;;;;;4.07;1.70;;;5.00;99.90;;;;;;5382123;26;20000;-50
2024/04/20 00:59:10;;;;;;;7.60;1.80;;;5.00;99.90;;;;;;5381507;26;20035;-50
2024/04/20 01:01:36;;;;;;;7.67;1.90;;;5.00;99.90;;;;;;5381864;26;20073;-49
2024/04/20 01:04:03;;;;;;;6.37;1.80;;;5.00;99.90;;;;;;5382304;26;20511;-49
2024/04/20 01:06:29;;;;;;;6.77;2.13;;;5.00;99.90;;;;;;5382076;26;19992;-49
2024/04/20 01:08:56;;;;;;;6.97;2.07;;;5.00;99.90;;;;;;5382490;26;19996;-49
2024/04/20 01:11:24;;;;;;;5.90;1.93;;;5.00;99.90;;;;;;5384002;26;20000;-50
2024/04/20 01:13:55;;;;;;;4.53;2.00;;;5.00;99.90;;;;;;5383341;26;19992;-51
2024/04/20 01:16:25;;;;;;;6.83;2.20;;;5.00;99.90;;;;;;5382584;26;20000;-50
2024/04/20 01:18:52;;;;;;;12.30;2.73;;;5.00;99.90;;;;;;5381574;26;20037;-49
2024/04/20 01:21:20;;;;;;;6.57;2.07;;;5.00;99.90;;;;;;5382124;26;20135;-52
2024/04/20 01:23:51;;;;;;;6.17;2.10;;;5.00;99.90;;;;;;5382914;26;19996;-52
2024/04/20 01:26:17;;;;;;;8.17;2.00;;;5.00;99.90;;;;;;5383137;26;20047;-52
2024/04/20 01:28:43;;;;;;;7.73;3.07;;;5.00;99.90;;;;;;5381416;26;20471;-53
2024/04/20 01:31:09;;;;;;;8.60;2.33;;;5.10;99.90;;;;;;5382063;26;20449;-53
2024/04/20 01:33:36;;;;;;;4.20;2.10;;;5.10;99.90;;;;;;5382320;26;20000;-49
2024/04/20 01:36:02;;;;;;;8.40;2.60;;;5.10;99.90;;;;;;5382824;26;20473;-53
2024/04/20 01:38:28;;;;;;;6.90;2.20;;;5.20;99.90;;;;;;5381182;26;20097;-49
2024/04/20 01:40:54;;;;;;;4.07;1.83;;;5.20;99.90;;;;;;5382567;26;20280;-49
2024/04/20 01:43:21;;;;;;;7.53;2.30;;;5.20;99.90;;;;;;5381776;26;20362;-49
2024/04/20 01:45:47;;;;;;;6.20;2.50;;;5.20;99.90;;;;;;5381823;26;20007;-49
2024/04/20 01:48:13;;;;;;;5.53;2.40;;;5.30;99.90;;;;;;5380859;26;20074;-52
2024/04/20 01:50:39;;;;;;;9.33;2.67;;;5.30;99.90;;;;;;5381525;26;20028;-49
2024/04/20 01:53:05;;;;;;;6.90;2.83;;;5.30;99.90;;;;;;5381630;26;20066;-49
2024/04/20 01:55:32;;;;;;;6.17;2.60;;;5.30;99.90;;;;;;5381521;26;19993;-49
2024/04/20 01:57:58;;;;;;;9.77;2.37;;;5.30;99.90;;;;;;5381578;26;19996;-53
2024/04/20 02:00:24;;;;;;;6.70;2.10;;;5.30;99.90;;;;;;5380671;26;20515;-53
2024/04/20 02:02:50;;;;;;;8.67;2.63;;;5.30;99.90;;;;;;5381383;26;20331;-50
2024/04/20 02:05:16;;;;;;;6.33;2.30;;;5.30;99.90;;;;;;5381640;26;20451;-52
2024/04/20 02:07:42;;;;;;;10.77;2.60;;;5.30;99.90;;;;;;5381632;26;20012;-53
2024/04/20 02:10:08;;;;;;;6.40;2.60;;;5.30;99.90;;;;;;5380672;26;20046;-53
2024/04/20 02:12:34;;;;;;;5.90;2.60;;;5.30;99.90;;;;;;5380661;26;20069;-52
2024/04/20 02:15:00;;;;;;;5.50;2.67;;;5.30;99.90;;;;;;5381313;26;20069;-53
2024/04/20 02:17:26;;;;;;;6.70;2.53;;;5.30;99.90;;;;;;5381143;26;19996;-52
2024/04/20 02:19:52;;;;;;;4.57;1.97;;;5.30;99.90;;;;;;5380351;26;20004;-52
2024/04/20 02:22:19;;;;;;;6.73;2.50;;;5.30;99.90;;;;;;5381456;26;19996;-53
2024/04/20 02:24:45;;;;;;;4.40;2.03;;;5.30;99.90;;;;;;5381326;26;19996;-53
2024/04/20 02:27:11;;;;;;;6.80;2.20;;;5.20;99.90;;;;;;5381165;26;20073;-49
2024/04/20 02:29:37;;;;;;;5.80;1.70;;;5.20;99.90;;;;;;5380343;26;20346;-50
2024/04/20 02:32:03;;;;;;;6.50;2.13;;;5.20;99.90;;;;;;5380894;26;20097;-52
2024/04/20 02:34:29;;;;;;;5.83;2.20;;;5.10;99.90;;;;;;5381166;26;20000;-50
2024/04/20 02:37:11;;;;;;;5.97;1.97;;;5.10;99.90;;;;;;5381157;26;20070;-53
2024/04/20 02:39:39;;;;;;;5.37;2.03;;;5.10;99.90;;;;;;5380454;26;20408;-53
2024/04/20 02:42:06;;;;;;;7.43;2.30;;;5.00;99.90;;;;;;5381004;26;19996;-53
2024/04/20 02:44:32;;;;;;;9.23;2.20;;;5.10;99.90;;;;;;5380776;26;20088;-51
2024/04/20 02:46:58;;;;;;;6.23;2.27;;;5.10;99.90;;;;;;5380786;26;20000;-51
2024/04/20 02:49:24;;;;;;;5.33;2.00;;;5.10;99.90;;;;;;5378387;26;20069;-53
2024/04/20 02:51:50;;;;;;;7.27;2.40;;;5.00;99.90;;;;;;5380576;26;20000;-51
2024/04/20 02:54:17;;;;;;;6.13;2.00;;;5.10;99.90;;;;;;5380915;26;19996;-51
2024/04/20 02:56:43;;;;;;;6.63;2.00;;;5.10;99.90;;;;;;5380558;26;20338;-53
2024/04/20 02:59:10;;;;;;;9.43;2.87;;;5.10;99.90;;;;;;5380224;26;20070;-51
2024/04/20 03:01:36;;;;;;;5.40;2.00;;;5.10;99.90;;;;;;5380821;26;20028;-53
2024/04/20 03:04:02;;;;;;;6.63;2.27;;;5.20;99.90;;;;;;5380695;26;20070;-52
2024/04/20 03:06:28;;;;;;;5.33;1.80;;;5.20;99.90;;;;;;5380575;26;20000;-51
2024/04/20 03:08:54;;;;;;;4.40;1.80;;;5.20;99.90;;;;;;5378005;26;19996;-53
2024/04/20 03:11:21;;;;;;;9.93;2.27;;;5.20;99.90;;;;;;5380018;26;19996;-51
2024/04/20 03:13:50;;;;;;;3.83;1.70;;;5.20;99.90;;;;;;5380445;26;19999;-53
2024/04/20 03:16:19;;;;;;;7.45;2.35;;;5.30;99.90;;;;;;5380409;26;20069;-51
2024/04/20 03:18:45;;;;;;;4.82;1.58;;;5.30;99.90;;;;;;5379551;26;19997;-49
2024/04/20 03:21:11;;;;;;;4.70;1.80;;;5.30;99.90;;;;;;5380240;26;19996;-53
2024/04/20 03:23:37;;;;;;;3.57;1.90;;;5.30;99.90;;;;;;5379995;26;20069;-50
2024/04/20 03:26:04;;;;;;;5.30;2.07;;;5.40;99.90;;;;;;5380283;26;20460;-50
2024/04/20 03:28:30;;;;;;;6.80;1.83;;;5.40;99.90;;;;;;5379532;26;20008;-51
2024/04/20 03:30:56;;;;;;;6.90;2.00;;;5.40;99.90;;;;;;5380349;26;20437;-52
2024/04/20 03:33:28;;;;;;;6.57;2.50;;;5.40;99.90;;;;;;5380261;26;20069;-51
2024/04/20 03:35:58;;;;;;;5.83;2.03;;;5.40;99.90;;;;;;5380303;26;20435;-52
2024/04/20 03:38:27;;;;;;;6.17;2.10;;;5.30;99.90;;;;;;5379441;26;20018;-53
2024/04/20 03:40:54;;;;;;;5.53;2.10;;;5.30;99.90;;;;;;5380163;26;20024;-53
2024/04/20 03:43:20;;;;;;;7.97;2.17;;;5.30;99.90;;;;;;5380032;26;20077;-53
2024/04/20 03:45:53;;;;;;;9.00;2.53;;;5.30;99.90;;;;;;5380431;26;20007;-49
2024/04/20 03:48:19;;;;;;;9.03;3.70;;;5.40;99.90;;;;;;5379443;26;20004;-53
2024/04/20 03:50:56;;;;;;;6.07;1.90;;;5.30;99.90;;;;;;5377979;26;20000;-53
2024/04/20 03:53:23;;;;;;;6.47;2.00;;;5.30;99.90;;;;;;5379929;26;19996;-53
2024/04/20 03:55:50;;;;;;;4.23;2.00;;;5.30;99.90;;;;;;5380072;26;19996;-53
2024/04/20 03:58:16;;;;;;;4.37;2.00;;;5.30;99.90;;;;;;5379236;26;20008;-53
2024/04/20 04:00:42;;;;;;;4.00;1.80;;;5.20;99.90;;;;;;5378054;26;20000;-53
2024/04/20 04:03:15;;;;;;;7.07;2.07;;;5.30;99.90;;;;;;5379734;26;19996;-53
2024/04/20 04:05:43;;;;;;;5.00;2.00;;;5.30;99.90;;;;;;5379520;26;20012;-52
2024/04/20 04:08:09;;;;;;;5.95;1.80;;;5.30;99.90;;;;;;5379074;26;20070;-52
2024/04/20 04:10:35;;;;;;;7.40;2.37;;;5.20;99.90;;;;;;5377710;26;20069;-53
2024/04/20 04:13:04;;;;;;;3.83;1.90;;;5.30;99.90;;;;;;5379536;26;20008;-53
2024/04/20 04:15:30;;;;;;;4.97;2.10;;;5.20;99.90;;;;;;5380071;26;20004;-49
2024/04/20 04:17:56;;;;;;;5.20;2.20;;;5.30;99.90;;;;;;5379373;26;19996;-49
2024/04/20 04:20:22;;;;;;;3.50;2.10;;;5.30;99.90;;;;;;5378581;26;19996;-53
2024/04/20 04:22:51;;;;;;;6.63;2.40;;;5.30;99.90;;;;;;5379340;26;20070;-53
2024/04/20 04:25:17;;;;;;;6.78;2.60;;;5.30;99.90;;;;;;5379687;26;20008;-53
2024/04/20 04:27:43;;;;;;;4.40;2.53;;;5.30;99.90;;;;;;5379338;26;19997;-52
2024/04/20 04:30:10;;;;;;;8.97;3.13;;;5.30;99.90;;;;;;5378342;26;20069;-53
2024/04/20 04:32:36;;;;;;;11.57;3.83;;;5.30;99.90;;;;;;5379165;26;19996;-53
2024/04/20 04:35:02;;;;;;;5.40;3.13;;;5.30;99.90;;;;;;5379128;26;20004;-50
2024/04/20 04:37:29;;;;;;;5.70;3.00;;;5.30;99.90;;;;;;5382031;26;20004;-49
2024/04/20 04:39:57;;;;;;;8.73;3.63;;;5.30;99.90;;;;;;5381731;26;20000;-53
2024/04/20 04:42:24;;;;;;;7.47;3.60;;;5.40;99.90;;;;;;5382680;26;20070;-53
2024/04/20 04:44:50;;;;;;;7.37;2.80;;;5.40;99.90;;;;;;5382704;26;20028;-49
2024/04/20 04:47:16;;;;;;;8.33;3.20;;;5.30;99.90;;;;;;5382512;26;20073;-53
2024/04/20 04:49:42;;;;;;;6.90;3.13;;;5.40;99.90;;;;;;5381693;26;20001;-53
2024/04/20 04:52:08;;;;;;;7.80;2.90;;;5.40;99.90;;;;;;5382530;26;20073;-51
2024/04/20 04:54:34;;;;;;;7.73;2.90;;;5.40;99.90;;;;;;5382654;26;20012;-52
2024/04/20 04:57:00;;;;;;;6.53;2.63;;;5.40;99.90;;;;;;5382274;26;20000;-53
2024/04/20 04:59:26;;;;;;;4.90;2.87;;;5.40;99.90;;;;;;5381585;26;20509;-52
2024/04/20 05:01:52;;;;;;;10.37;4.30;;;5.40;99.90;;;;;;5382075;26;20000;-53
2024/04/20 05:04:18;;;;;;;11.13;3.80;;;5.40;99.90;;;;;;5382275;26;20001;-53
2024/04/20 05:06:46;;;;;;;8.03;2.90;;;5.40;99.90;;;;;;5383703;26;20070;-49
2024/04/20 05:09:13;;;;;;;9.77;3.30;;;5.50;99.90;;;;;;5379644;26;20522;-50
2024/04/20 05:11:39;;;;;;;7.80;2.90;;;5.40;99.90;;;;;;5381632;26;20065;-48
2024/04/20 05:14:05;;;;;;;7.87;2.93;;;5.40;99.90;;;;;;5382116;26;19992;-49
2024/04/20 05:16:31;;;;;;;5.57;2.33;;;5.40;99.90;;;;;;5381963;26;19996;-50
2024/04/20 05:18:57;;;;;;;8.47;2.57;;;5.50;99.90;;;;;;5381313;26;20369;-50
2024/04/20 05:21:23;;;;;;;8.27;2.27;;;5.50;99.90;;;;;;5382290;26;19992;-50
2024/04/20 05:23:49;;;;;;;6.30;2.10;;;5.50;99.90;;;;;;5382182;26;19996;-50
2024/04/20 05:26:15;;;;;;;12.53;3.37;;;5.50;99.90;;;;;;5382131;26;20073;-49
2024/04/20 05:28:42;;;;;;;7.80;2.77;;;5.50;99.90;;;;;;5381600;26;20050;-50
2024/04/20 05:31:08;;;;;;;8.23;2.20;;;5.50;99.90;;;;;;5381216;26;19996;-53
2024/04/20 05:33:34;;;;;;;9.50;2.50;;;5.50;99.90;;;;;;5382025;26;19993;-52
2024/04/20 05:36:07;;;;;;;8.33;2.27;;;5.50;99.90;;;;;;5381836;26;20314;-49
2024/04/20 05:38:33;;;;;;;7.93;2.27;;;5.50;99.90;;;;;;5381267;26;19993;-53
2024/04/20 05:41:03;;;;;;;9.77;2.27;;;5.50;99.90;;;;;;5381699;26;19996;-51
2024/04/20 05:43:29;;;;;;;10.40;2.37;;;5.50;99.90;;;;;;5381283;26;20022;-52
2024/04/20 05:45:55;;;;;;;9.57;2.70;;;5.50;99.90;;;;;;5381436;26;20063;-48
2024/04/20 05:48:21;;;;;;;8.00;2.57;;;5.50;99.90;;;;;;5379119;26;19992;-49
2024/04/20 05:50:47;;;;;;;5.73;2.40;;;5.50;99.90;;;;;;5381714;26;19999;-50
2024/04/20 05:53:13;;;;;;;7.43;2.23;;;5.40;99.90;;;;;;5381611;26;19998;-49
2024/04/20 05:55:43;;;;;;;7.33;2.20;;;5.50;99.90;;;;;;5379890;26;20066;-49
2024/04/20 05:58:09;;;;;;;7.33;1.90;;;5.50;99.90;;;;;;5380538;26;19997;-49
2024/04/20 06:00:35;;;;;;;8.67;1.83;;;5.50;99.90;;;;;;5381379;26;20000;-52
2024/04/20 06:03:02;;;;;;;8.07;2.00;;;5.50;99.90;;;;;;5381706;26;20024;-50
2024/04/20 06:05:28;;;;;;;5.67;2.13;;;5.50;99.90;;;;;;5381021;26;20453;-50
2024/04/20 06:07:54;;;;;;;8.63;2.53;;;5.50;99.90;;;;;;5381351;26;19992;-51
2024/04/20 06:10:21;;;;;;;7.87;2.20;;;5.50;99.90;;;;;;5380512;26;19992;-49
2024/04/20 06:12:48;;;;;;;5.80;1.80;;;5.50;99.90;;;;;;5381194;26;20004;-49
2024/04/20 06:15:14;;;;;;;12.23;2.30;;;5.50;99.90;;;;;;5381220;26;19996;-49
2024/04/20 06:17:40;;;;;;;7.27;1.80;;;5.50;99.90;;;;;;5350177;26;20581;-49
2024/04/20 06:20:06;;;;;;;7.67;1.97;;;5.50;99.90;;;;;;5380564;26;20000;-51
2024/04/20 06:22:32;;;;;;;5.03;2.00;;;5.50;99.90;;;;;;5380775;26;20331;-50
2024/04/20 06:25:00;;;;;;;7.30;1.87;;;5.50;99.90;;;;;;5381056;26;20470;-49
2024/04/20 06:27:26;;;;;;;7.50;2.40;;;5.50;99.90;;;;;;5381006;26;20061;-54
2024/04/20 06:29:52;;;;;;;14.87;2.60;;;5.50;99.90;;;;;;5380070;26;20065;-50
2024/04/20 06:32:18;;;;;;;11.37;2.50;;;5.50;99.90;;;;;;5381007;26;19996;-52
2024/04/20 06:34:44;;;;;;;8.83;3.00;;;5.50;99.90;;;;;;5381184;26;19996;-52
2024/04/20 06:37:11;;;;;;;13.50;3.37;;;5.50;99.90;;;;;;5381229;26;20502;-50
2024/04/20 06:39:37;;;;;;;9.67;2.63;;;5.50;99.90;;;;;;5380480;26;20327;-54
2024/04/20 06:42:03;;;;;;;10.53;2.70;;;5.50;99.90;;;;;;5380793;26;19992;-51
2024/04/20 06:44:29;;;;;;;8.90;3.27;;;5.50;99.90;;;;;;5381204;26;20024;-53
2024/04/20 06:46:56;;;;;;;11.53;3.70;;;5.50;99.90;;;;;;5381139;26;20444;-53
2024/04/20 06:49:22;;;;;;;8.97;3.20;;;5.60;99.90;;;;;;5379831;26;19996;-54
2024/04/20 06:51:48;;;;;;;11.50;3.13;;;5.60;99.90;;;;;;5380253;26;20265;-53
2024/04/20 06:54:14;;;;;;;6.83;3.00;;;5.60;99.90;;;;;;5380854;26;20412;-50
2024/04/20 06:56:40;;;;;;;16.30;3.50;;;5.60;99.90;;;;;;5380632;26;20448;-53
2024/04/20 06:59:09;;;;;;;10.07;3.20;;;5.60;99.90;;;;;;5379467;26;19992;-49
2024/04/20 07:01:35;;;;;;;9.67;3.00;;;5.60;99.90;;;;;;5380971;26;19996;-49
2024/04/20 07:04:01;;;;;;;8.83;3.00;;;5.60;99.90;;;;;;5378978;26;19988;-54
2024/04/20 07:06:27;;;;;;;10.33;3.53;;;5.60;99.90;;;;;;5380641;26;19992;-53
2024/04/20 07:08:53;;;;;;;13.33;3.23;;;5.60;99.90;;;;;;5379913;26;20337;-53
2024/04/20 07:11:19;;;;;;;7.27;3.30;;;5.70;99.90;;;;;;5380817;26;20069;-54
2024/04/20 07:13:47;;;;;;;8.50;2.80;;;5.70;99.90;;;;;;5380528;26;19996;-54
2024/04/20 07:16:13;;;;;;;7.60;3.00;;;5.80;99.90;;;;;;5380567;26;20432;-53
2024/04/20 07:18:39;;;;;;;9.57;3.50;;;5.80;99.90;;;;;;5378150;26;19992;-53
2024/04/20 07:21:06;;;;;;;9.83;3.17;;;5.80;99.90;;;;;;5379867;26;20364;-54
2024/04/20 07:23:33;;;;;;;9.43;3.00;;;5.80;99.90;;;;;;5380456;26;20046;-54
2024/04/20 07:26:04;;;;;;;10.37;3.67;;;5.80;99.90;;;;;;5380422;26;19996;-54
2024/04/20 07:28:30;;;;;;;8.97;3.30;;;5.70;99.90;;;;;;5379706;26;20011;-54
2024/04/20 07:30:57;;;;;;;8.93;3.00;;;5.70;99.90;;;;;;5380328;26;20514;-53
2024/04/20 07:33:23;;;;;;;10.87;3.70;;;5.80;99.90;;;;;;5380369;26;20012;-54
2024/04/20 07:35:50;;;;;;;7.13;2.80;;;5.80;99.90;;;;;;5380476;26;19996;-53
2024/04/20 07:38:16;;;;;;;5.63;2.53;;;5.90;99.90;;;;;;5379645;26;19996;-54
2024/04/20 07:40:42;;;;;;;8.00;2.43;;;5.90;99.90;;;;;;5379645;26;20065;-53
2024/04/20 07:43:08;;;;;;;7.27;2.30;;;5.90;99.90;;;;;;5378545;26;19993;-54
2024/04/20 07:45:34;;;;;;;8.13;2.37;;;5.90;99.90;;;;;;5379747;26;19992;-50
2024/04/20 07:48:00;;;;;;;6.93;1.77;;;6.00;99.90;;;;;;5380237;26;19992;-50
2024/04/20 07:50:27;;;;;;;6.97;1.80;;;6.00;99.90;;;;;;5379338;26;20361;-52
2024/04/20 07:52:53;;;;;;;5.07;1.70;;;5.90;99.90;;;;;;5380147;26;19992;-51
2024/04/20 07:55:19;;;;;;;7.60;2.20;;;5.90;99.90;;;;;;5379981;26;20069;-51
2024/04/20 07:57:46;;;;;;;6.37;2.10;;;5.90;99.90;;;;;;5379743;26;20441;-49
2024/04/20 08:00:13;;;;;;;11.53;3.00;;;6.00;99.90;;;;;;5379101;26;19995;-52
2024/04/20 08:02:39;;;;;;;6.77;2.47;;;5.90;99.90;;;;;;5380012;26;19992;-49
2024/04/20 08:05:08;;;;;;;9.97;2.83;;;5.90;99.90;;;;;;5380234;26;20429;-49
2024/04/20 08:07:35;;;;;;;9.63;2.63;;;5.90;99.90;;;;;;5379612;26;20301;-53
2024/04/20 08:10:01;;;;;;;9.67;2.90;;;5.90;99.90;;;;;;5378655;26;20000;-53
2024/04/20 08:12:27;;;;;;;8.97;3.00;;;5.90;99.90;;;;;;5382335;26;20073;-52
2024/04/20 08:14:53;;;;;;;9.20;3.30;;;6.00;99.90;;;;;;5383247;26;20074;-49
2024/04/20 08:17:19;;;;;;;9.53;3.03;;;6.00;99.90;;;;;;5381209;26;20446;-50
2024/04/20 08:19:46;;;;;;;11.60;3.90;;;6.00;99.90;;;;;;5382215;26;20073;-50
2024/04/20 08:22:12;;;;;;;10.57;3.63;;;6.10;99.90;;;;;;5382811;26;20069;-50
2024/04/20 08:24:38;;;;;;;10.37;3.10;;;6.20;99.90;;;;;;5383002;26;20368;-50
2024/04/20 08:27:04;;;;;;;7.70;3.30;;;6.20;99.90;;;;;;5382738;26;20000;-52
2024/04/20 08:29:32;;;;;;;11.60;3.00;;;6.20;99.90;;;;;;5382221;26;20069;-52
2024/04/20 08:31:58;;;;;;;6.90;3.07;;;6.20;99.90;;;;;;5382844;26;20361;-53
2024/04/20 08:34:24;;;;;;;8.53;4.17;;;6.20;99.90;;;;;;5382974;26;19992;-52
2024/04/20 08:36:50;;;;;;;8.80;3.30;;;6.30;99.90;;;;;;5383079;26;22132;-53
2024/04/20 08:39:16;;;;;;;8.53;3.07;;;6.30;99.90;;;;;;5382336;26;19996;-53
2024/04/20 08:42:02;;;;;;;10.07;3.23;;;6.40;99.90;;;;;;5382770;26;19996;-53
2024/04/20 08:44:28;;;;;;;11.13;3.20;;;6.50;99.90;;;;;;5382944;26;20348;-51
2024/04/20 08:46:54;;;;;;;10.23;2.40;;;6.60;99.90;;;;;;5382768;26;20077;-53
2024/04/20 08:49:25;;;;;;;12.13;3.63;;;6.70;99.90;;;;;;5381538;26;20345;-52
2024/04/20 08:51:52;;;;;;;10.30;3.70;;;6.80;99.90;;;;;;5382471;26;20027;-53
2024/04/20 08:54:19;;;;;;;8.77;2.20;;;7.00;99.90;;;;;;5381906;26;19996;-50
2024/04/20 08:56:45;;;;;;;7.67;1.87;;;7.20;99.90;;;;;;5382607;26;20414;-49
2024/04/20 08:59:11;;;;;;;6.90;2.57;;;7.20;99.90;;;;;;5381589;26;20062;-52
2024/04/20 09:01:38;;;;;;;8.67;2.30;;;7.40;99.90;;;;;;5382437;26;20399;-50
2024/04/20 09:04:05;;;;;;;10.33;2.33;;;7.40;99.90;;;;;;5382541;26;19996;-51
2024/04/20 09:06:33;;;;;;;8.40;2.70;;;7.30;99.90;;;;;;5382844;26;20405;-53
2024/04/20 09:09:01;;;;;;;7.53;2.30;;;7.20;99.90;;;;;;5381504;26;20062;-53
2024/04/20 09:11:27;;;;;;;9.10;2.57;;;7.20;99.90;;;;;;5381702;26;20000;-53
2024/04/20 09:13:53;;;;;;;8.07;2.57;;;7.10;99.90;;;;;;5380391;26;19992;-53
2024/04/20 09:16:19;;;;;;;9.97;2.27;;;7.10;99.90;;;;;;5381985;26;19992;-53
2024/04/20 09:18:45;;;;;;;7.00;1.53;;;7.10;99.90;;;;;;5379590;26;20065;-50
2024/04/20 09:21:11;;;;;;;7.30;1.93;;;7.10;99.90;;;;;;5381976;26;20085;-53
2024/04/20 09:23:42;;;;;;;6.83;1.80;;;7.20;99.90;;;;;;5381665;26;20395;-51
2024/04/20 09:26:11;;;;;;;9.07;2.10;;;7.40;99.90;;;;;;5381959;26;19997;-53
2024/04/20 09:28:38;;;;;;;6.43;1.80;;;7.70;99.90;;;;;;5379415;26;20007;-53
2024/04/20 09:31:04;;;;;;;9.83;2.10;;;8.00;99.90;;;;;;5382228;26;20031;-50
2024/04/20 09:33:30;;;;;;;6.47;2.20;;;8.40;99.90;;;;;;5382062;26;19996;-53
2024/04/20 09:35:56;;;;;;;5.90;1.77;;;8.70;99.90;;;;;;5381911;26;19996;-48
2024/04/20 09:38:23;;;;;;;6.80;1.80;;;9.00;99.90;;;;;;5380850;26;20069;-52
2024/04/20 09:40:53;;;;;;;10.03;2.03;;;9.10;99.90;;;;;;5380222;26;20012;-48
2024/04/20 09:43:23;;;;;;;10.87;2.50;;;9.00;99.90;;;;;;5381768;26;19996;-49
2024/04/20 09:45:51;;;;;;;7.57;1.70;;;8.80;99.90;;;;;;5381792;26;19996;-53
2024/04/20 09:48:24;;;;;;;7.70;1.73;;;8.60;99.90;;;;;;5381024;26;20441;-51
2024/04/20 09:50:57;;;;;;;6.97;1.70;;;8.40;99.90;;;;;;5382146;26;19996;-53
2024/04/20 09:53:31;;;;;;;7.33;1.50;;;8.20;99.90;;;;;;5381504;26;20445;-53
2024/04/20 09:56:01;;;;;;;7.47;1.90;;;8.00;99.90;;;;;;5380981;26;20418;-53
2024/04/20 09:58:29;;;;;;;7.47;1.30;;;8.10;99.90;;;;;;5380785;26;20011;-52
2024/04/20 10:00:56;;;;;;;9.63;1.70;;;8.10;99.90;;;;;;5381401;26;19995;-52
2024/04/20 10:03:23;;;;;;;6.93;1.47;;;8.50;99.90;;;;;;5381585;26;20008;-52
2024/04/20 10:05:54;;;;;;;9.00;1.13;;;9.10;99.90;;;;;;5381443;26;19993;-53
2024/04/20 10:08:21;;;;;;;4.93;1.20;;;9.90;99.90;;;;;;5378796;26;20024;-53
2024/04/20 10:10:47;;;;;;;6.47;1.23;;;10.60;99.90;;;;;;5381086;26;19996;-51
2024/04/20 10:13:19;;;;;;;3.35;1.00;;;11.30;99.90;;;;;;5381417;26;20003;-52
2024/04/20 10:15:53;;;;;;;6.80;1.33;;;11.80;99.90;;;;;;5381057;26;20408;-52
2024/04/20 10:18:19;;;;;;;3.47;0.90;;;12.00;99.90;;;;;;5382034;26;20006;-53
2024/04/20 10:20:45;;;;;;;5.35;2.05;;;12.10;99.90;;;;;;5381169;26;19996;-49
2024/04/20 10:23:20;;;;;;;4.18;1.20;;;12.10;99.90;;;;;;5381768;26;20482;-49
2024/04/20 10:25:56;;;;;;;5.00;1.10;;;12.00;99.90;;;;;;5381247;26;19996;-49
2024/04/20 10:28:30;;;;;;;2.92;0.90;;;11.80;99.90;;;;;;5380533;26;20000;-53
2024/04/20 10:30:58;;;;;;;5.80;1.10;;;11.60;99.90;;;;;;5380718;26;19992;-53
2024/04/20 10:33:30;;;;;;;7.03;1.58;;;11.40;99.90;;;;;;5380389;26;20387;-53
2024/04/20 10:36:08;;;;;;;13.30;1.88;;;10.90;99.90;;;;;;5381072;26;20000;-53
2024/04/20 10:38:34;;;;;;;5.60;1.85;;;10.50;99.90;;;;;;5379879;26;20000;-53
2024/04/20 10:41:14;;;;;;;6.37;1.37;;;10.20;99.90;;;;;;5381131;26;20000;-53
2024/04/20 10:43:41;;;;;;;4.22;1.38;;;10.10;99.90;;;;;;5381030;26;20023;-53
2024/04/20 10:46:08;;;;;;;5.63;1.27;;;10.10;99.90;;;;;;5381224;26;20051;-52
2024/04/20 10:48:40;;;;;;;6.23;1.50;;;10.10;99.90;;;;;;5380098;26;20008;-54
2024/04/20 10:51:17;;;;;;;6.67;1.33;;;10.00;99.90;;;;;;5379102;26;20044;-54
2024/04/20 10:53:43;;;;;;;4.77;1.43;;;9.90;99.90;;;;;;5380704;26;20479;-51
2024/04/20 10:56:10;;;;;;;2.43;1.20;;;9.90;99.90;;;;;;5380728;26;20034;-49
2024/04/20 10:58:43;;;;;;;1.90;0.73;;;9.80;99.90;;;;;;5379692;26;20000;-50
2024/04/20 11:01:09;;;;;;;2.03;0.60;;;9.30;99.90;;;;;;5380900;26;20457;-53
2024/04/20 11:03:35;;;;;;;3.80;0.80;;;8.80;99.90;;;;;;5380797;26;20004;-49
2024/04/20 11:06:02;;;;;;;5.63;1.30;;;8.50;99.90;;;;;;5380412;26;19996;-53
2024/04/20 11:08:29;;;;;;;5.63;1.10;;;8.20;99.90;;;;;;5377862;26;20065;-54
2024/04/20 11:11:03;;;;;;;5.87;1.20;;;8.00;99.90;;;;;;5380116;26;20058;-54
2024/04/20 11:13:32;;;;;;;6.13;1.23;;;7.90;99.90;;;;;;5380885;26;20449;-54
2024/04/20 11:15:59;;;;;;;9.77;1.57;;;7.80;99.90;;;;;;5380367;26;20001;-54
2024/04/20 11:18:26;;;;;;;6.17;1.30;;;7.70;99.90;;;;;;5379637;26;19996;-54
2024/04/20 11:20:52;;;;;;;6.50;1.17;;;7.80;99.90;;;;;;5380397;26;20449;-54
2024/04/20 11:23:18;;;;;;;5.03;1.23;;;8.00;99.90;;;;;;5380669;26;19993;-54
2024/04/20 11:25:54;;;;;;;4.67;0.87;;;8.40;99.90;;;;;;5380853;26;19996;-54
2024/04/20 11:28:22;;;;;;;5.03;0.90;;;8.90;99.90;;;;;;5379557;26;20000;-54
2024/04/20 11:30:48;;;;;;;5.13;0.90;;;9.30;99.90;;;;;;5380526;26;20047;-54
2024/04/20 11:33:14;;;;;;;4.90;0.80;;;9.70;99.90;;;;;;5380586;26;20070;-50
2024/04/20 11:35:53;;;;;;;5.07;1.00;;;10.20;99.90;;;;;;5380315;26;20074;-54
2024/04/20 11:38:19;;;;;;;3.83;0.80;;;10.50;99.90;;;;;;5378826;26;19992;-54
2024/04/20 11:40:49;;;;;;;5.30;0.93;;;10.80;99.90;;;;;;5380402;26;19998;-54
2024/04/20 11:43:24;;;;;;;4.07;0.93;;;11.00;99.90;;;;;;5380142;26;20004;-54
2024/04/20 11:45:54;;;;;;;6.70;1.27;;;11.30;99.90;;;;;;5379529;26;20066;-54
2024/04/20 11:48:29;;;;;;;6.07;1.15;;;11.30;99.90;;;;;;5379131;26;20000;-54
2024/04/20 11:51:07;;;;;;;4.50;0.95;;;11.40;99.90;;;;;;5380022;26;20411;-53
2024/04/20 11:56:23;;;;;;;6.68;1.10;;;11.60;99.90;;;;;;5379931;26;20453;-53
2024/04/20 11:58:52;;;;;;;5.47;1.90;;;11.70;99.90;;;;;;5378978;26;20103;-54
2024/04/20 12:01:19;;;;;;;;;;;11.60;99.90;;;;;;5380431;26;20070;-53
2024/04/20 12:03:49;;;;;;;5.43;1.40;;;11.10;99.90;;;;;;5379831;26;19932;-54
2024/04/20 12:06:15;;;;;;;6.83;2.03;;;10.40;99.90;;;;;;5379963;26;20011;-51
2024/04/20 12:08:42;;;;;;;8.67;1.70;;;9.70;99.90;;;;;;5378854;26;20047;-54
2024/04/20 12:11:08;;;;;;;6.80;1.60;;;9.20;99.90;;;;;;5379680;26;20011;-53
2024/04/20 12:13:35;;;;;;;6.17;1.53;;;9.00;99.90;;;;;;5379645;26;20322;-54
2024/04/20 12:16:01;;;;;;;4.43;1.40;;;8.90;99.90;;;;;;5379452;26;19996;-51
2024/04/20 12:18:27;;;;;;;8.83;1.63;;;8.90;99.90;;;;;;5378699;26;19997;-50
2024/04/20 12:20:53;;;;;;;4.80;1.30;;;8.70;99.90;;;;;;5379508;26;20070;-54
2024/04/20 12:23:19;;;;;;;8.47;1.40;;;8.80;99.90;;;;;;5379270;26;20364;-51
2024/04/20 12:25:48;;;;;;;3.93;1.50;;;9.00;99.90;;;;;;5378739;26;20070;-50
2024/04/20 12:28:17;;;;;;;6.05;1.73;;;9.40;99.90;;;;;;5378315;26;19992;-54
2024/04/20 12:30:44;;;;;;;11.87;1.83;;;9.80;99.90;;;;;;5379481;26;20039;-54
2024/04/20 12:33:12;;;;;;;4.07;1.07;;;10.00;99.90;;;;;;5379613;26;20004;-50
2024/04/20 12:35:38;;;;;;;4.00;0.83;;;9.90;99.90;;;;;;5379473;26;20467;-54
2024/04/20 12:38:05;;;;;;;4.27;0.80;;;9.60;99.90;;;;;;5379330;26;20441;-53
2024/04/20 12:40:31;;;;;;;2.93;0.87;;;9.40;99.90;;;;;;5378488;26;19996;-52
2024/04/20 12:42:57;;;;;;;1.90;0.73;;;9.30;99.90;;;;;;5378741;26;20368;-52
2024/04/20 12:45:29;;;;;;;3.70;0.73;;;9.30;99.90;;;;;;5379048;26;19992;-52
2024/04/20 12:47:58;;;;;;;3.43;0.80;;;9.50;99.90;;;;;;5377477;26;20069;-53
2024/04/20 12:50:24;;;;;;;4.85;0.95;;;9.80;99.90;;;;;;5377861;26;20070;-54
2024/04/20 12:52:50;;;;;;;3.13;0.60;;;10.10;99.90;;;;;;5379076;26;19996;-50
2024/04/20 12:55:17;;;;;;;4.10;1.07;;;10.30;99.90;;;;;;5378810;26;20008;-53
2024/04/20 12:57:53;;;;;;;2.13;0.60;;;10.40;99.90;;;;;;5380867;26;20355;-53